sensor_id;sensor_type;location;lat;lon;timestamp;temperature;humidity
28546;DHT22;15749;49.606;8.738;2022-09-03T04:21:33;23.60;54.80
28546;DHT22;15749;49.606;8.738;2022-09-03T04:25:31;23.60;56.10
28546;DHT22;15749;49.606;8.738;2022-09-03T04:33:14;23.60;56.90
28546;DHT22;15749;49.606;8.738;2022-09-03T04:49:01;23.60;57.60
28546;DHT22;15749;49.606;8.738;2022-09-03T04:56:30;23.60;56.70
28546;DHT22;15749;49.606;8.738;2022-09-03T05:00:35;23.60;56.80
28546;DHT22;15749;49.606;8.738;2022-09-03T05:04:48;23.50;58.30
28546;DHT22;15749;49.606;8.738;2022-09-03T05:13:08;23.50;55.90
28546;DHT22;15749;49.606;8.738;2022-09-03T05:18:24;23.50;57.10
28546;DHT22;15749;49.606;8.738;2022-09-03T05:29:31;23.50;58.50
28546;DHT22;15749;49.606;8.738;2022-09-03T05:32:28;23.50;58.60
28546;DHT22;15749;49.606;8.738;2022-09-03T05:36:00;23.50;58.00
28546;DHT22;15749;49.606;8.738;2022-09-03T05:38:53;23.50;58.40
28546;DHT22;15749;49.606;8.738;2022-09-03T05:46:46;23.50;58.90
28546;DHT22;15749;49.606;8.738;2022-09-03T05:54:52;23.60;60.20
28546;DHT22;15749;49.606;8.738;2022-09-03T06:07:07;23.50;58.40
28546;DHT22;15749;49.606;8.738;2022-09-03T06:09:55;23.50;59.30
28546;DHT22;15749;49.606;8.738;2022-09-03T06:12:43;23.50;59.10
28546;DHT22;15749;49.606;8.738;2022-09-03T06:15:34;23.40;58.60
28546;DHT22;15749;49.606;8.738;2022-09-03T06:18:22;23.40;59.10
28546;DHT22;15749;49.606;8.738;2022-09-03T06:21:10;23.40;59.60
28546;DHT22;15749;49.606;8.738;2022-09-03T06:24:02;23.30;60.10
28546;DHT22;15749;49.606;8.738;2022-09-03T06:26:50;23.30;60.30
28546;DHT22;15749;49.606;8.738;2022-09-03T06:29:38;23.30;60.60
28546;DHT22;15749;49.606;8.738;2022-09-03T06:32:26;23.30;61.00
28546;DHT22;15749;49.606;8.738;2022-09-03T06:35:14;23.30;61.60
28546;DHT22;15749;49.606;8.738;2022-09-03T06:38:02;23.30;61.70
28546;DHT22;15749;49.606;8.738;2022-09-03T06:40:56;23.30;61.30
28546;DHT22;15749;49.606;8.738;2022-09-03T06:43:47;23.30;62.50
28546;DHT22;15749;49.606;8.738;2022-09-03T06:46:36;23.30;61.20
28546;DHT22;15749;49.606;8.738;2022-09-03T06:49:27;23.30;60.90
28546;DHT22;15749;49.606;8.738;2022-09-03T06:52:16;23.30;61.70
28546;DHT22;15749;49.606;8.738;2022-09-03T06:55:04;23.30;62.50
28546;DHT22;15749;49.606;8.738;2022-09-03T06:57:56;23.40;63.00
28546;DHT22;15749;49.606;8.738;2022-09-03T07:00:44;23.40;63.60
28546;DHT22;15749;49.606;8.738;2022-09-03T07:03:32;23.40;63.30
28546;DHT22;15749;49.606;8.738;2022-09-03T07:06:22;23.40;63.60
28546;DHT22;15749;49.606;8.738;2022-09-03T07:09:11;23.50;63.90
28546;DHT22;15749;49.606;8.738;2022-09-03T07:12:01;23.50;64.30
28546;DHT22;15749;49.606;8.738;2022-09-03T07:14:50;23.50;64.40
28546;DHT22;15749;49.606;8.738;2022-09-03T07:17:38;23.60;64.70
28546;DHT22;15749;49.606;8.738;2022-09-03T07:20:26;23.60;64.50
28546;DHT22;15749;49.606;8.738;2022-09-03T07:23:14;23.60;64.80
28546;DHT22;15749;49.606;8.738;2022-09-03T07:26:03;23.60;65.00
28546;DHT22;15749;49.606;8.738;2022-09-03T07:28:53;23.60;65.40
28546;DHT22;15749;49.606;8.738;2022-09-03T07:31:42;23.60;65.30
28546;DHT22;15749;49.606;8.738;2022-09-03T07:34:31;23.70;65.70
28546;DHT22;15749;49.606;8.738;2022-09-03T07:37:21;23.60;65.40
28546;DHT22;15749;49.606;8.738;2022-09-03T07:40:09;23.60;65.60
28546;DHT22;15749;49.606;8.738;2022-09-03T07:43:00;23.60;66.00
28546;DHT22;15749;49.606;8.738;2022-09-03T07:45:49;23.60;66.00
28546;DHT22;15749;49.606;8.738;2022-09-03T07:48:39;23.60;65.40
28546;DHT22;15749;49.606;8.738;2022-09-03T07:51:30;23.60;66.60
28546;DHT22;15749;49.606;8.738;2022-09-03T07:54:19;23.60;66.40
28546;DHT22;15749;49.606;8.738;2022-09-03T07:57:09;23.60;66.40
28546;DHT22;15749;49.606;8.738;2022-09-03T07:59:56;23.60;66.60
28546;DHT22;15749;49.606;8.738;2022-09-03T08:02:44;23.60;66.80
28546;DHT22;15749;49.606;8.738;2022-09-03T08:05:35;23.50;66.90
28546;DHT22;15749;49.606;8.738;2022-09-03T08:08:25;23.50;67.60
28546;DHT22;15749;49.606;8.738;2022-09-03T08:11:22;23.50;67.80
28546;DHT22;15749;49.606;8.738;2022-09-03T08:14:13;23.50;67.70
28546;DHT22;15749;49.606;8.738;2022-09-03T08:17:01;23.50;67.60
28546;DHT22;15749;49.606;8.738;2022-09-03T08:19:49;23.50;67.80
28546;DHT22;15749;49.606;8.738;2022-09-03T08:22:39;23.50;67.80
28546;DHT22;15749;49.606;8.738;2022-09-03T08:25:26;23.50;68.50
28546;DHT22;15749;49.606;8.738;2022-09-03T08:28:14;23.40;68.00
28546;DHT22;15749;49.606;8.738;2022-09-03T08:31:06;23.40;68.40
28546;DHT22;15749;49.606;8.738;2022-09-03T08:33:58;23.40;69.40
28546;DHT22;15749;49.606;8.738;2022-09-03T08:36:52;23.40;69.30
28546;DHT22;15749;49.606;8.738;2022-09-03T08:39:41;23.40;68.20
28546;DHT22;15749;49.606;8.738;2022-09-03T08:42:40;23.30;67.40
28546;DHT22;15749;49.606;8.738;2022-09-03T08:45:34;23.30;68.40
28546;DHT22;15749;49.606;8.738;2022-09-03T08:48:26;23.20;68.50
28546;DHT22;15749;49.606;8.738;2022-09-03T08:51:16;23.10;68.40
28546;DHT22;15749;49.606;8.738;2022-09-03T08:54:06;23.10;68.90
28546;DHT22;15749;49.606;8.738;2022-09-03T08:56:59;23.10;69.00
28546;DHT22;15749;49.606;8.738;2022-09-03T08:59:53;23.00;70.00
28546;DHT22;15749;49.606;8.738;2022-09-03T09:02:50;23.00;70.20
28546;DHT22;15749;49.606;8.738;2022-09-03T09:05:48;23.00;70.70
28546;DHT22;15749;49.606;8.738;2022-09-03T09:08:50;23.00;68.90
28546;DHT22;15749;49.606;8.738;2022-09-03T09:11:53;23.00;68.80
28546;DHT22;15749;49.606;8.738;2022-09-03T09:14:54;23.00;69.30
28546;DHT22;15749;49.606;8.738;2022-09-03T09:18:02;22.90;69.50
28546;DHT22;15749;49.606;8.738;2022-09-03T09:21:01;22.90;69.50
28546;DHT22;15749;49.606;8.738;2022-09-03T09:23:59;22.90;71.30
28546;DHT22;15749;49.606;8.738;2022-09-03T09:26:52;22.90;70.70
28546;DHT22;15749;49.606;8.738;2022-09-03T09:29:47;22.90;70.60
28546;DHT22;15749;49.606;8.738;2022-09-03T09:32:37;22.90;71.40
28546;DHT22;15749;49.606;8.738;2022-09-03T09:35:25;22.90;71.00
28546;DHT22;15749;49.606;8.738;2022-09-03T09:38:13;22.90;71.70
28546;DHT22;15749;49.606;8.738;2022-09-03T09:41:08;22.90;70.90
28546;DHT22;15749;49.606;8.738;2022-09-03T09:43:59;22.90;71.30
28546;DHT22;15749;49.606;8.738;2022-09-03T09:47:01;22.90;71.60
28546;DHT22;15749;49.606;8.738;2022-09-03T09:49:53;23.00;71.90
28546;DHT22;15749;49.606;8.738;2022-09-03T09:52:42;23.00;71.00
28546;DHT22;15749;49.606;8.738;2022-09-03T09:55:35;23.00;71.20
28546;DHT22;15749;49.606;8.738;2022-09-03T09:58:35;23.00;70.70
28546;DHT22;15749;49.606;8.738;2022-09-03T10:01:23;23.00;71.00
28546;DHT22;15749;49.606;8.738;2022-09-03T10:04:23;22.90;71.50
28546;DHT22;15749;49.606;8.738;2022-09-03T10:07:24;22.90;72.30
28546;DHT22;15749;49.606;8.738;2022-09-03T10:10:19;22.90;72.50
28546;DHT22;15749;49.606;8.738;2022-09-03T10:13:10;22.90;72.50
28546;DHT22;15749;49.606;8.738;2022-09-03T10:16:03;23.00;73.80
28546;DHT22;15749;49.606;8.738;2022-09-03T10:19:02;23.00;73.80
28546;DHT22;15749;49.606;8.738;2022-09-03T10:22:01;23.10;74.30
28546;DHT22;15749;49.606;8.738;2022-09-03T10:24:58;23.10;75.10
28546;DHT22;15749;49.606;8.738;2022-09-03T10:27:47;23.20;74.00
28546;DHT22;15749;49.606;8.738;2022-09-03T10:30:51;23.30;73.80
28546;DHT22;15749;49.606;8.738;2022-09-03T10:33:59;23.40;74.40
28546;DHT22;15749;49.606;8.738;2022-09-03T10:36:55;23.50;74.60
28546;DHT22;15749;49.606;8.738;2022-09-03T10:40:17;23.60;74.60
28546;DHT22;15749;49.606;8.738;2022-09-03T10:43:26;23.70;73.50
28546;DHT22;15749;49.606;8.738;2022-09-03T10:46:29;23.90;73.60
28546;DHT22;15749;49.606;8.738;2022-09-03T10:49:31;24.00;73.10
28546;DHT22;15749;49.606;8.738;2022-09-03T10:52:33;24.10;73.50
28546;DHT22;15749;49.606;8.738;2022-09-03T10:55:29;24.20;73.80
28546;DHT22;15749;49.606;8.738;2022-09-03T10:58:46;24.30;74.40
28546;DHT22;15749;49.606;8.738;2022-09-03T11:01:45;24.50;73.80
28546;DHT22;15749;49.606;8.738;2022-09-03T11:04:45;24.60;74.00
28546;DHT22;15749;49.606;8.738;2022-09-03T11:07:40;24.70;74.50
28546;DHT22;15749;49.606;8.738;2022-09-03T11:10:32;24.80;74.70
28546;DHT22;15749;49.606;8.738;2022-09-03T11:13:25;24.90;74.40
28546;DHT22;15749;49.606;8.738;2022-09-03T11:16:16;25.00;74.40
28546;DHT22;15749;49.606;8.738;2022-09-03T11:19:10;25.10;73.80
28546;DHT22;15749;49.606;8.738;2022-09-03T11:22:02;25.20;73.70
28546;DHT22;15749;49.606;8.738;2022-09-03T11:24:55;25.30;74.40
28546;DHT22;15749;49.606;8.738;2022-09-03T11:27:53;25.40;73.20
28546;DHT22;15749;49.606;8.738;2022-09-03T11:30:51;25.50;73.10
28546;DHT22;15749;49.606;8.738;2022-09-03T11:33:52;25.60;73.10
28546;DHT22;15749;49.606;8.738;2022-09-03T11:36:41;25.60;72.60
28546;DHT22;15749;49.606;8.738;2022-09-03T11:39:35;25.80;72.50
28546;DHT22;15749;49.606;8.738;2022-09-03T11:42:30;25.80;72.60
28546;DHT22;15749;49.606;8.738;2022-09-03T11:45:32;25.90;73.10
28546;DHT22;15749;49.606;8.738;2022-09-03T11:48:37;25.90;73.20
28546;DHT22;15749;49.606;8.738;2022-09-03T11:51:31;26.00;73.10
28546;DHT22;15749;49.606;8.738;2022-09-03T11:54:25;26.10;71.30
28546;DHT22;15749;49.606;8.738;2022-09-03T11:57:14;26.20;72.00
28546;DHT22;15749;49.606;8.738;2022-09-03T12:00:12;26.20;72.10
28546;DHT22;15749;49.606;8.738;2022-09-03T12:03:03;26.20;71.90
28546;DHT22;15749;49.606;8.738;2022-09-03T12:06:04;26.20;71.40
28546;DHT22;15749;49.606;8.738;2022-09-03T12:09:25;26.20;70.00
28546;DHT22;15749;49.606;8.738;2022-09-03T12:12:38;26.20;70.20
28546;DHT22;15749;49.606;8.738;2022-09-03T12:19:03;26.30;68.80
28546;DHT22;15749;49.606;8.738;2022-09-03T12:21:57;26.40;70.00
28546;DHT22;15749;49.606;8.738;2022-09-03T12:24:49;26.40;69.80
28546;DHT22;15749;49.606;8.738;2022-09-03T12:27:38;26.40;68.50
28546;DHT22;15749;49.606;8.738;2022-09-03T12:30:27;26.50;70.30
28546;DHT22;15749;49.606;8.738;2022-09-03T12:33:18;26.50;69.90
28546;DHT22;15749;49.606;8.738;2022-09-03T12:36:08;26.60;68.10
28546;DHT22;15749;49.606;8.738;2022-09-03T12:39:07;26.60;68.40
28546;DHT22;15749;49.606;8.738;2022-09-03T12:42:00;26.70;69.20
28546;DHT22;15749;49.606;8.738;2022-09-03T12:44:49;26.70;69.50
28546;DHT22;15749;49.606;8.738;2022-09-03T12:47:38;26.70;68.50
28546;DHT22;15749;49.606;8.738;2022-09-03T12:50:28;26.70;68.20
28546;DHT22;15749;49.606;8.738;2022-09-03T12:53:20;26.70;66.90
28546;DHT22;15749;49.606;8.738;2022-09-03T12:56:11;26.70;67.30
28546;DHT22;15749;49.606;8.738;2022-09-03T12:59:05;26.70;66.60
28546;DHT22;15749;49.606;8.738;2022-09-03T13:02:00;26.70;66.80
28546;DHT22;15749;49.606;8.738;2022-09-03T13:04:52;26.70;66.10
28546;DHT22;15749;49.606;8.738;2022-09-03T13:07:46;26.80;67.20
28546;DHT22;15749;49.606;8.738;2022-09-03T13:10:41;26.80;67.70
28546;DHT22;15749;49.606;8.738;2022-09-03T13:13:31;26.70;67.30
28546;DHT22;15749;49.606;8.738;2022-09-03T13:16:45;26.80;65.60
28546;DHT22;15749;49.606;8.738;2022-09-03T13:19:57;26.80;65.50
28546;DHT22;15749;49.606;8.738;2022-09-03T13:26:29;26.90;65.70
28546;DHT22;15749;49.606;8.738;2022-09-03T13:29:40;26.90;65.70
28546;DHT22;15749;49.606;8.738;2022-09-03T13:32:49;26.80;66.30
28546;DHT22;15749;49.606;8.738;2022-09-03T13:35:48;26.90;66.10
28546;DHT22;15749;49.606;8.738;2022-09-03T13:38:45;26.90;65.30
28546;DHT22;15749;49.606;8.738;2022-09-03T13:41:42;26.90;65.00
28546;DHT22;15749;49.606;8.738;2022-09-03T13:44:40;27.00;66.00
28546;DHT22;15749;49.606;8.738;2022-09-03T13:47:35;26.90;65.80
28546;DHT22;15749;49.606;8.738;2022-09-03T13:50:52;26.90;65.30
28546;DHT22;15749;49.606;8.738;2022-09-03T13:54:00;27.00;65.20
28546;DHT22;15749;49.606;8.738;2022-09-03T13:56:56;27.00;66.50
28546;DHT22;15749;49.606;8.738;2022-09-03T13:59:51;27.00;65.40
28546;DHT22;15749;49.606;8.738;2022-09-03T14:02:52;27.00;64.50
28546;DHT22;15749;49.606;8.738;2022-09-03T14:05:53;27.00;64.10
28546;DHT22;15749;49.606;8.738;2022-09-03T14:09:02;27.00;63.40
28546;DHT22;15749;49.606;8.738;2022-09-03T14:11:57;27.00;65.40
28546;DHT22;15749;49.606;8.738;2022-09-03T14:14:54;27.00;64.90
28546;DHT22;15749;49.606;8.738;2022-09-03T14:17:51;27.10;63.90
28546;DHT22;15749;49.606;8.738;2022-09-03T14:20:48;27.10;65.60
28546;DHT22;15749;49.606;8.738;2022-09-03T14:23:46;27.10;64.90
28546;DHT22;15749;49.606;8.738;2022-09-03T14:26:50;27.10;65.80
28546;DHT22;15749;49.606;8.738;2022-09-03T14:29:50;27.10;63.50
28546;DHT22;15749;49.606;8.738;2022-09-03T14:32:47;27.10;63.70
28546;DHT22;15749;49.606;8.738;2022-09-03T14:35:57;27.10;63.80
28546;DHT22;15749;49.606;8.738;2022-09-03T14:39:02;27.10;63.90
28546;DHT22;15749;49.606;8.738;2022-09-03T14:42:35;27.10;65.90
28546;DHT22;15749;49.606;8.738;2022-09-03T14:45:49;27.10;66.20
28546;DHT22;15749;49.606;8.738;2022-09-03T14:52:29;27.10;65.80
28546;DHT22;15749;49.606;8.738;2022-09-03T15:02:51;27.20;65.20
28546;DHT22;15749;49.606;8.738;2022-09-03T15:06:46;27.30;64.80
28546;DHT22;15749;49.606;8.738;2022-09-03T15:10:00;27.20;65.20
28546;DHT22;15749;49.606;8.738;2022-09-03T15:12:57;27.20;65.30
28546;DHT22;15749;49.606;8.738;2022-09-03T15:16:02;27.30;64.70
28546;DHT22;15749;49.606;8.738;2022-09-03T15:19:11;27.20;64.80
28546;DHT22;15749;49.606;8.738;2022-09-03T15:22:13;27.20;65.40
28546;DHT22;15749;49.606;8.738;2022-09-03T15:25:18;27.20;64.10
28546;DHT22;15749;49.606;8.738;2022-09-03T15:28:18;27.20;64.70
28546;DHT22;15749;49.606;8.738;2022-09-03T15:31:28;27.20;65.10
28546;DHT22;15749;49.606;8.738;2022-09-03T15:34:56;27.20;64.70
28546;DHT22;15749;49.606;8.738;2022-09-03T15:38:00;27.10;65.50
28546;DHT22;15749;49.606;8.738;2022-09-03T15:40:53;27.10;66.60
28546;DHT22;15749;49.606;8.738;2022-09-03T15:43:49;27.10;65.80
28546;DHT22;15749;49.606;8.738;2022-09-03T15:46:48;27.10;66.40
28546;DHT22;15749;49.606;8.738;2022-09-03T15:49:53;27.10;66.50
28546;DHT22;15749;49.606;8.738;2022-09-03T15:52:54;27.10;66.50
28546;DHT22;15749;49.606;8.738;2022-09-03T15:55:47;27.10;68.40
28546;DHT22;15749;49.606;8.738;2022-09-03T15:58:40;27.10;66.30
28546;DHT22;15749;49.606;8.738;2022-09-03T16:01:35;27.10;66.80
28546;DHT22;15749;49.606;8.738;2022-09-03T16:04:38;27.10;67.40
28546;DHT22;15749;49.606;8.738;2022-09-03T16:07:56;27.10;67.20
28546;DHT22;15749;49.606;8.738;2022-09-03T16:11:01;27.10;67.40
28546;DHT22;15749;49.606;8.738;2022-09-03T16:14:02;27.10;67.50
28546;DHT22;15749;49.606;8.738;2022-09-03T16:17:00;27.10;67.20
28546;DHT22;15749;49.606;8.738;2022-09-03T16:19:57;27.10;67.30
28546;DHT22;15749;49.606;8.738;2022-09-03T16:22:56;27.00;66.90
28546;DHT22;15749;49.606;8.738;2022-09-03T16:25:54;27.00;67.60
28546;DHT22;15749;49.606;8.738;2022-09-03T16:28:47;27.00;67.00
28546;DHT22;15749;49.606;8.738;2022-09-03T16:31:54;27.00;66.00
28546;DHT22;15749;49.606;8.738;2022-09-03T16:35:07;27.00;66.90
28546;DHT22;15749;49.606;8.738;2022-09-03T16:38:16;26.90;66.20
28546;DHT22;15749;49.606;8.738;2022-09-03T16:41:17;26.90;66.50
28546;DHT22;15749;49.606;8.738;2022-09-03T16:44:13;26.90;66.50
28546;DHT22;15749;49.606;8.738;2022-09-03T16:47:11;26.80;66.20
28546;DHT22;15749;49.606;8.738;2022-09-03T16:50:16;26.70;66.60
28546;DHT22;15749;49.606;8.738;2022-09-03T16:53:20;26.70;67.40
28546;DHT22;15749;49.606;8.738;2022-09-03T16:56:35;26.70;68.00
28546;DHT22;15749;49.606;8.738;2022-09-03T17:03:41;26.70;69.40
28546;DHT22;15749;49.606;8.738;2022-09-03T17:06:59;26.70;68.60
28546;DHT22;15749;49.606;8.738;2022-09-03T17:10:02;26.70;66.90
28546;DHT22;15749;49.606;8.738;2022-09-03T17:13:13;26.60;67.20
28546;DHT22;15749;49.606;8.738;2022-09-03T17:16:18;26.60;67.60
28546;DHT22;15749;49.606;8.738;2022-09-03T17:19:17;26.60;67.40
28546;DHT22;15749;49.606;8.738;2022-09-03T17:22:22;26.60;66.80
28546;DHT22;15749;49.606;8.738;2022-09-03T17:25:28;26.60;68.00
28546;DHT22;15749;49.606;8.738;2022-09-03T17:28:29;26.60;67.40
28546;DHT22;15749;49.606;8.738;2022-09-03T17:31:28;26.60;68.30
28546;DHT22;15749;49.606;8.738;2022-09-03T17:34:36;26.50;69.20
28546;DHT22;15749;49.606;8.738;2022-09-03T17:37:53;26.50;69.10
28546;DHT22;15749;49.606;8.738;2022-09-03T17:40:57;26.60;69.30
28546;DHT22;15749;49.606;8.738;2022-09-03T17:43:58;26.50;70.90
28546;DHT22;15749;49.606;8.738;2022-09-03T17:47:02;26.50;68.60
28546;DHT22;15749;49.606;8.738;2022-09-03T17:50:07;26.50;68.40
28546;DHT22;15749;49.606;8.738;2022-09-03T17:53:10;26.50;67.50
28546;DHT22;15749;49.606;8.738;2022-09-03T17:56:08;26.40;67.60
28546;DHT22;15749;49.606;8.738;2022-09-03T17:59:11;26.40;68.30
28546;DHT22;15749;49.606;8.738;2022-09-03T18:02:14;26.40;69.00
28546;DHT22;15749;49.606;8.738;2022-09-03T18:05:23;26.40;69.40
28546;DHT22;15749;49.606;8.738;2022-09-03T18:08:21;26.40;67.80
28546;DHT22;15749;49.606;8.738;2022-09-03T18:11:13;26.40;69.00
28546;DHT22;15749;49.606;8.738;2022-09-03T18:14:16;26.30;68.80
28546;DHT22;15749;49.606;8.738;2022-09-03T18:17:15;26.30;69.40
28546;DHT22;15749;49.606;8.738;2022-09-03T18:20:12;26.30;69.00
28546;DHT22;15749;49.606;8.738;2022-09-03T18:23:24;26.30;69.60
28546;DHT22;15749;49.606;8.738;2022-09-03T18:26:38;26.30;70.10
28546;DHT22;15749;49.606;8.738;2022-09-03T18:29:53;26.30;69.70
28546;DHT22;15749;49.606;8.738;2022-09-03T18:33:01;26.30;70.10
28546;DHT22;15749;49.606;8.738;2022-09-03T18:36:07;26.30;69.70
28546;DHT22;15749;49.606;8.738;2022-09-03T18:39:23;26.20;69.80
28546;DHT22;15749;49.606;8.738;2022-09-03T18:42:40;26.20;70.20
28546;DHT22;15749;49.606;8.738;2022-09-03T18:45:59;26.20;70.40
28546;DHT22;15749;49.606;8.738;2022-09-03T18:49:34;26.20;70.10
28546;DHT22;15749;49.606;8.738;2022-09-03T18:52:51;26.10;70.00
28546;DHT22;15749;49.606;8.738;2022-09-03T18:56:08;26.10;70.60
28546;DHT22;15749;49.606;8.738;2022-09-03T18:59:35;26.10;70.60
28546;DHT22;15749;49.606;8.738;2022-09-03T19:06:46;26.00;71.30
28546;DHT22;15749;49.606;8.738;2022-09-03T19:10:03;26.10;71.10
28546;DHT22;15749;49.606;8.738;2022-09-03T19:13:26;26.00;70.80
28546;DHT22;15749;49.606;8.738;2022-09-03T19:16:44;26.00;71.50
28546;DHT22;15749;49.606;8.738;2022-09-03T19:20:04;26.00;71.00
28546;DHT22;15749;49.606;8.738;2022-09-03T19:23:13;26.00;70.80
28546;DHT22;15749;49.606;8.738;2022-09-03T19:26:25;26.00;70.10
28546;DHT22;15749;49.606;8.738;2022-09-03T19:29:48;25.90;71.10
28546;DHT22;15749;49.606;8.738;2022-09-03T19:33:08;25.90;71.50
28546;DHT22;15749;49.606;8.738;2022-09-03T19:36:21;25.80;71.70
28546;DHT22;15749;49.606;8.738;2022-09-03T19:39:51;25.90;70.80
28546;DHT22;15749;49.606;8.738;2022-09-03T19:43:11;25.80;72.20
28546;DHT22;15749;49.606;8.738;2022-09-03T19:46:46;25.80;71.70
28546;DHT22;15749;49.606;8.738;2022-09-03T19:50:01;25.80;72.10
28546;DHT22;15749;49.606;8.738;2022-09-03T19:53:11;25.80;71.40
28546;DHT22;15749;49.606;8.738;2022-09-03T19:56:24;25.70;71.20
28546;DHT22;15749;49.606;8.738;2022-09-03T19:59:35;25.70;71.30
28546;DHT22;15749;49.606;8.738;2022-09-03T20:02:46;25.60;71.50
28546;DHT22;15749;49.606;8.738;2022-09-03T20:05:55;25.60;71.50
28546;DHT22;15749;49.606;8.738;2022-09-03T20:09:04;25.60;71.60
28546;DHT22;15749;49.606;8.738;2022-09-03T20:12:12;25.60;71.10
28546;DHT22;15749;49.606;8.738;2022-09-03T20:15:03;25.50;71.30
28546;DHT22;15749;49.606;8.738;2022-09-03T20:18:00;25.50;71.80
28546;DHT22;15749;49.606;8.738;2022-09-03T20:20:55;25.50;72.60
28546;DHT22;15749;49.606;8.738;2022-09-03T20:23:53;25.40;71.70
28546;DHT22;15749;49.606;8.738;2022-09-03T20:26:49;25.40;71.60
28546;DHT22;15749;49.606;8.738;2022-09-03T20:29:50;25.40;72.30
28546;DHT22;15749;49.606;8.738;2022-09-03T20:36:16;25.30;72.00
28546;DHT22;15749;49.606;8.738;2022-09-03T20:39:24;25.30;72.10
28546;DHT22;15749;49.606;8.738;2022-09-03T20:42:36;25.20;71.80
28546;DHT22;15749;49.606;8.738;2022-09-03T20:45:34;25.20;71.70
28546;DHT22;15749;49.606;8.738;2022-09-03T20:48:43;25.20;71.50
28546;DHT22;15749;49.606;8.738;2022-09-03T20:51:42;25.20;72.10
28546;DHT22;15749;49.606;8.738;2022-09-03T20:54:36;25.10;72.00
28546;DHT22;15749;49.606;8.738;2022-09-03T20:57:38;25.00;71.70
28546;DHT22;15749;49.606;8.738;2022-09-03T21:00:38;25.00;72.40
28546;DHT22;15749;49.606;8.738;2022-09-03T21:03:40;25.00;72.80
28546;DHT22;15749;49.606;8.738;2022-09-03T21:06:41;25.00;72.70
28546;DHT22;15749;49.606;8.738;2022-09-03T21:09:38;24.90;72.80
28546;DHT22;15749;49.606;8.738;2022-09-03T21:12:44;24.90;72.40
28546;DHT22;15749;49.606;8.738;2022-09-03T21:15:48;24.90;72.40
28546;DHT22;15749;49.606;8.738;2022-09-03T21:18:50;24.90;72.80
28546;DHT22;15749;49.606;8.738;2022-09-03T21:22:00;24.80;72.40
28546;DHT22;15749;49.606;8.738;2022-09-03T21:24:55;24.80;72.70
28546;DHT22;15749;49.606;8.738;2022-09-03T21:27:48;24.70;72.10
28546;DHT22;15749;49.606;8.738;2022-09-03T21:30:41;24.70;72.90
28546;DHT22;15749;49.606;8.738;2022-09-03T21:33:37;24.70;72.70
28546;DHT22;15749;49.606;8.738;2022-09-03T21:36:29;24.70;73.10
28546;DHT22;15749;49.606;8.738;2022-09-03T21:39:31;24.60;73.00
28546;DHT22;15749;49.606;8.738;2022-09-03T21:42:35;24.60;73.20
28546;DHT22;15749;49.606;8.738;2022-09-03T21:45:34;24.50;72.70
28546;DHT22;15749;49.606;8.738;2022-09-03T21:48:46;24.50;72.80
28546;DHT22;15749;49.606;8.738;2022-09-03T21:52:02;24.40;73.30
28546;DHT22;15749;49.606;8.738;2022-09-03T21:55:17;24.40;73.00
28546;DHT22;15749;49.606;8.738;2022-09-03T21:58:21;24.40;73.20
28546;DHT22;15749;49.606;8.738;2022-09-03T22:01:19;24.40;73.60
28546;DHT22;15749;49.606;8.738;2022-09-03T22:04:31;24.30;73.50
28546;DHT22;15749;49.606;8.738;2022-09-03T22:07:30;24.30;72.90
28546;DHT22;15749;49.606;8.738;2022-09-03T22:10:31;24.30;73.50
28546;DHT22;15749;49.606;8.738;2022-09-03T22:14:03;24.30;73.60
28546;DHT22;15749;49.606;8.738;2022-09-03T22:17:32;24.20;73.60
28546;DHT22;15749;49.606;8.738;2022-09-03T22:20:32;24.20;73.00
28546;DHT22;15749;49.606;8.738;2022-09-03T22:23:36;24.20;73.20
28546;DHT22;15749;49.606;8.738;2022-09-03T22:33:30;24.10;73.90
